Time;durP1;ratioP1;P1;durP2;ratioP2;P2;SDS_P1;SDS_P2;PMS_P1;PMS_P2;Temp;Humidity;BMP_temperature;BMP_pressure;BME280_temperature;BME280_humidity;BME280_pressure;Samples;Min_cycle;Max_cycle;Signal;HPM_P1;HPM_P2
2021/07/09 00:02:05;;;;;;;5.90;3.80;;;;;;;15.14;100.00;96998.66;5109496;28;20647;-59
2021/07/09 00:04:31;;;;;;;4.03;3.67;;;;;;;15.15;100.00;97004.75;5112776;28;20182;-59
2021/07/09 00:06:56;;;;;;;5.00;3.83;;;;;;;15.30;100.00;97010.94;5094065;28;20184;-59
2021/07/09 00:09:23;;;;;;;3.57;3.27;;;;;;;15.23;100.00;97012.19;5092510;28;20322;-59
2021/07/09 00:11:50;;;;;;;4.03;3.63;;;;;;;15.25;100.00;97016.19;5103830;28;20192;-59
2021/07/09 00:14:18;;;;;;;4.53;4.13;;;;;;;15.36;100.00;97015.22;5094947;28;20255;-59
2021/07/09 00:16:45;;;;;;;6.50;4.73;;;;;;;15.41;100.00;97019.75;5110257;28;20181;-59
2021/07/09 00:19:11;;;;;;;4.20;3.80;;;;;;;15.43;100.00;97020.31;5100358;28;20175;-59
2021/07/09 00:21:37;;;;;;;4.27;3.87;;;;;;;15.57;100.00;97029.44;5103959;28;20253;-59
2021/07/09 00:24:04;;;;;;;4.40;3.80;;;;;;;15.32;100.00;97026.56;5106279;28;20725;-61
2021/07/09 00:26:30;;;;;;;3.80;3.40;;;;;;;15.36;100.00;97031.09;5093396;28;20188;-60
2021/07/09 00:28:59;;;;;;;3.30;3.10;;;;;;;15.53;100.00;97027.56;5108204;28;20200;-61
2021/07/09 00:31:26;;;;;;;3.33;3.03;;;;;;;15.42;100.00;97023.19;5095458;28;20252;-59
2021/07/09 00:33:52;;;;;;;3.10;2.90;;;;;;;15.32;100.00;97029.97;5100582;28;20184;-59
2021/07/09 00:36:18;;;;;;;2.97;2.77;;;;;;;15.39;100.00;97024.50;5107227;28;20187;-60
2021/07/09 00:38:44;;;;;;;3.17;2.87;;;;;;;15.68;100.00;97031.13;5094028;28;20200;-59
2021/07/09 00:41:10;;;;;;;3.37;2.80;;;;;;;15.61;100.00;97025.22;5106195;28;20269;-59
2021/07/09 00:43:37;;;;;;;4.13;3.20;;;;;;;15.71;100.00;97027.97;5100691;28;20562;-60
2021/07/09 00:46:03;;;;;;;3.40;2.90;;;;;;;15.68;100.00;97023.19;5106459;28;20258;-59
2021/07/09 00:48:28;;;;;;;4.63;3.30;;;;;;;15.77;100.00;97021.66;5093719;28;20192;-60
2021/07/09 00:51:03;;;;;;;3.97;3.50;;;;;;;15.82;100.00;97017.47;5108338;28;20578;-62
2021/07/09 00:53:29;;;;;;;4.00;3.60;;;;;;;15.67;100.00;97020.78;5102724;28;20266;-59
2021/07/09 00:55:54;;;;;;;4.47;3.57;;;;;;;15.57;100.00;97010.16;5100097;28;20337;-61
2021/07/09 00:58:21;;;;;;;3.83;3.53;;;;;;;15.60;100.00;97015.75;5093160;28;20197;-60
2021/07/09 01:00:47;;;;;;;6.10;3.53;;;;;;;15.56;100.00;97004.06;5108821;28;20217;-58
2021/07/09 01:03:12;;;;;;;4.27;3.87;;;;;;;15.55;100.00;97004.34;5098529;28;20257;-59
2021/07/09 01:05:38;;;;;;;5.00;3.90;;;;;;;15.54;100.00;97002.72;5094074;28;20663;-59
2021/07/09 01:08:05;;;;;;;6.07;4.17;;;;;;;15.46;100.00;97001.31;5096663;28;20220;-61
2021/07/09 01:10:31;;;;;;;6.17;3.90;;;;;;;15.40;100.00;96999.69;5092597;28;20882;-59
2021/07/09 01:12:57;;;;;;;4.80;3.83;;;;;;;15.37;100.00;96993.06;5107326;28;20184;-62
2021/07/09 01:15:23;;;;;;;4.53;4.10;;;;;;;15.30;100.00;96997.75;5092548;28;20188;-59
2021/07/09 01:17:49;;;;;;;4.10;3.70;;;;;;;15.24;100.00;96993.47;5095143;28;20547;-59
2021/07/09 01:20:17;;;;;;;5.47;4.37;;;;;;;15.24;100.00;96992.66;5110472;28;20473;-59
2021/07/09 01:22:44;;;;;;;3.80;3.50;;;;;;;15.11;100.00;96988.59;5101020;28;20188;-60
2021/07/09 01:25:18;;;;;;;5.03;3.90;;;;;;;15.03;100.00;96996.16;5095476;28;20198;-59
2021/07/09 01:27:48;;;;;;;5.17;4.67;;;;;;;15.06;100.00;96993.81;5103272;28;20190;-59
2021/07/09 01:30:16;;;;;;;5.67;4.37;;;;;;;15.05;100.00;96986.13;5103027;28;20688;-60
2021/07/09 01:32:42;;;;;;;6.20;4.83;;;;;;;15.02;100.00;96991.94;5104760;28;20216;-59
2021/07/09 01:35:09;;;;;;;4.90;4.43;;;;;;;14.98;100.00;96999.56;5109770;28;20325;-58
2021/07/09 01:37:34;;;;;;;6.87;4.97;;;;;;;15.04;100.00;96992.50;5106752;28;20180;-58
2021/07/09 01:40:00;;;;;;;5.57;4.33;;;;;;;15.06;100.00;96990.38;5093605;28;20234;-60
2021/07/09 01:42:26;;;;;;;5.53;4.60;;;;;;;15.07;100.00;96994.63;5111740;28;20189;-59
2021/07/09 01:44:51;;;;;;;6.33;4.60;;;;;;;15.15;100.00;96999.47;5097550;28;20237;-60
2021/07/09 01:47:17;;;;;;;7.13;4.97;;;;;;;15.08;100.00;96996.22;5099762;28;20246;-59
2021/07/09 01:49:54;;;;;;;6.63;4.23;;;;;;;15.07;100.00;96981.41;5097751;28;20200;-60
2021/07/09 01:52:20;;;;;;;6.17;4.20;;;;;;;15.12;100.00;96986.75;5097965;28;20193;-59
2021/07/09 01:54:46;;;;;;;4.63;3.80;;;;;;;14.92;100.00;96988.16;5093143;28;20234;-60
2021/07/09 01:57:12;;;;;;;4.57;4.20;;;;;;;14.87;100.00;96990.75;5094970;28;20645;-60
2021/07/09 01:59:39;;;;;;;4.50;4.10;;;;;;;14.89;100.00;96980.72;5099987;28;20199;-59
2021/07/09 02:02:08;;;;;;;6.00;4.30;;;;;;;14.93;100.00;96991.59;5099282;28;20176;-59
2021/07/09 02:04:42;;;;;;;4.67;4.00;;;;;;;14.81;100.00;96997.00;5098464;28;20983;-59
2021/07/09 02:07:07;;;;;;;3.70;3.40;;;;;;;14.94;100.00;96991.31;5093854;28;20173;-59
2021/07/09 02:09:32;;;;;;;3.90;3.50;;;;;;;14.81;100.00;96998.84;5090795;28;20199;-59
2021/07/09 02:11:58;;;;;;;4.17;3.47;;;;;;;14.78;100.00;96992.22;5098699;28;20211;-61
2021/07/09 02:14:23;;;;;;;4.10;3.70;;;;;;;14.83;100.00;97002.03;5089991;28;20196;-59
2021/07/09 02:16:48;;;;;;;3.33;3.03;;;;;;;14.75;100.00;96995.38;5094756;28;20264;-59
2021/07/09 02:19:14;;;;;;;6.67;3.90;;;;;;;14.82;100.00;96995.94;5094054;28;20747;-59
2021/07/09 02:21:45;;;;;;;3.83;3.40;;;;;;;14.75;100.00;96992.72;5107826;28;20193;-59
2021/07/09 02:24:10;;;;;;;3.40;3.10;;;;;;;14.87;100.00;97001.31;5098929;28;20218;-60
2021/07/09 02:26:36;;;;;;;4.20;3.63;;;;;;;14.68;100.00;97009.78;5099551;28;20198;-60
2021/07/09 02:29:01;;;;;;;7.03;3.70;;;;;;;14.82;100.00;97011.00;5105011;28;20286;-60
2021/07/09 02:31:26;;;;;;;3.90;3.20;;;;;;;14.79;100.00;97011.50;5109816;28;20555;-60
2021/07/09 02:33:52;;;;;;;3.43;3.13;;;;;;;14.94;100.00;97014.28;5092554;28;20200;-59
2021/07/09 02:36:17;;;;;;;3.70;3.23;;;;;;;15.01;100.00;97022.00;5099961;28;20160;-60
2021/07/09 02:38:42;;;;;;;5.20;3.67;;;;;;;15.01;100.00;97014.88;5103151;28;20188;-59
2021/07/09 02:41:08;;;;;;;4.27;3.87;;;;;;;15.07;100.00;97015.75;5095935;28;20263;-60
2021/07/09 02:43:33;;;;;;;5.10;3.63;;;;;;;15.02;100.00;97016.50;5107729;28;20244;-61
2021/07/09 02:45:58;;;;;;;4.03;3.53;;;;;;;14.93;100.00;97015.34;5096572;28;20180;-62
2021/07/09 02:48:27;;;;;;;3.70;3.33;;;;;;;15.04;100.00;97005.69;5099380;28;20211;-59
2021/07/09 02:50:52;;;;;;;4.50;4.10;;;;;;;14.97;100.00;97001.41;5101497;28;20350;-59
2021/07/09 02:53:17;;;;;;;17.87;3.90;;;;;;;14.92;100.00;96998.72;5092693;28;20696;-60
2021/07/09 02:55:43;;;;;;;5.83;3.23;;;;;;;14.85;100.00;97000.75;5094333;28;20290;-60
2021/07/09 02:58:10;;;;;;;4.43;3.70;;;;;;;14.77;100.00;97003.00;5103838;28;20176;-60
2021/07/09 03:00:42;;;;;;;3.57;3.27;;;;;;;14.83;100.00;97000.19;5081708;28;20589;-60
2021/07/09 03:03:08;;;;;;;4.30;3.80;;;;;;;14.72;100.00;97005.59;5089403;28;20181;-60
2021/07/09 03:05:33;;;;;;;9.53;3.37;;;;;;;14.71;100.00;97006.66;5102119;28;20184;-59
2021/07/09 03:07:59;;;;;;;4.13;3.73;;;;;;;14.82;100.00;97003.09;5107533;28;20245;-62
2021/07/09 03:10:24;;;;;;;3.70;3.40;;;;;;;14.75;100.00;97018.31;5090850;28;20242;-60
2021/07/09 03:12:49;;;;;;;4.10;3.70;;;;;;;14.80;100.00;97015.72;5111057;28;20195;-60
2021/07/09 03:15:16;;;;;;;4.13;3.43;;;;;;;14.90;100.00;97016.63;5098013;28;20259;-60
2021/07/09 03:17:41;;;;;;;4.23;3.70;;;;;;;14.83;100.00;97013.38;5112059;28;20203;-59
2021/07/09 03:20:09;;;;;;;4.73;3.77;;;;;;;14.79;100.00;97011.50;5097520;28;20594;-60
2021/07/09 03:22:34;;;;;;;4.53;3.93;;;;;;;14.85;100.00;97013.94;5114391;28;20207;-59
2021/07/09 03:25:00;;;;;;;4.97;4.20;;;;;;;15.04;100.00;97016.25;5113982;28;20219;-62
2021/07/09 03:27:25;;;;;;;5.23;4.70;;;;;;;14.88;100.00;97010.78;5106526;28;20241;-60
2021/07/09 03:29:51;;;;;;;4.30;3.90;;;;;;;14.90;100.00;97014.00;5097280;28;20196;-59
2021/07/09 03:32:16;;;;;;;4.23;3.83;;;;;;;14.91;100.00;97018.22;5109334;28;20630;-59
2021/07/09 03:34:41;;;;;;;5.10;3.83;;;;;;;14.92;100.00;97017.19;5103337;28;20207;-59
2021/07/09 03:37:07;;;;;;;6.77;3.90;;;;;;;14.86;100.00;97025.28;5112468;28;20644;-60
2021/07/09 03:39:32;;;;;;;5.87;4.00;;;;;;;15.00;100.00;97026.50;5099222;28;20233;-59
2021/07/09 03:41:58;;;;;;;6.23;4.70;;;;;;;14.95;100.00;97018.53;5111775;28;20195;-60
2021/07/09 03:44:23;;;;;;;4.60;4.17;;;;;;;14.97;100.00;97022.53;5099429;28;20199;-59
2021/07/09 03:46:48;;;;;;;5.47;4.30;;;;;;;14.96;100.00;97022.75;5106715;28;20185;-59
2021/07/09 03:49:14;;;;;;;4.27;3.90;;;;;;;14.94;100.00;97020.34;5106180;28;20184;-59
2021/07/09 03:52:06;;;;;;;4.93;4.43;;;;;;;14.95;100.00;97021.16;5098683;28;20213;-60
2021/07/09 03:54:32;;;;;;;6.30;4.23;;;;;;;14.86;100.00;97012.91;5084023;28;20282;-60
2021/07/09 03:56:58;;;;;;;4.73;4.07;;;;;;;14.92;100.00;97014.56;5104980;28;20634;-60
2021/07/09 03:59:23;;;;;;;5.13;4.00;;;;;;;14.86;100.00;97014.75;5095989;28;20190;-60
2021/07/09 04:01:48;;;;;;;5.17;4.43;;;;;;;14.95;100.00;97021.97;5097660;28;20602;-60
2021/07/09 04:04:14;;;;;;;4.80;4.40;;;;;;;15.00;100.00;97034.41;5110401;28;20172;-60
2021/07/09 04:06:39;;;;;;;5.23;4.40;;;;;;;14.98;100.00;97028.59;5101168;28;20268;-60
2021/07/09 04:09:04;;;;;;;4.60;4.20;;;;;;;14.99;100.00;97032.81;5112163;28;20206;-60
2021/07/09 04:11:30;;;;;;;4.40;3.90;;;;;;;14.89;100.00;97037.97;5100308;28;20543;-60
2021/07/09 04:13:55;;;;;;;4.97;3.30;;;;;;;14.85;100.00;97037.69;5111101;28;20180;-60
2021/07/09 04:16:21;;;;;;;5.30;4.03;;;;;;;14.83;100.00;97037.13;5102019;28;20211;-60
2021/07/09 04:18:46;;;;;;;4.27;3.40;;;;;;;15.03;100.00;97043.69;5107777;28;20211;-59
2021/07/09 04:21:11;;;;;;;4.63;3.83;;;;;;;14.93;100.00;97037.25;5103519;28;20196;-59
2021/07/09 04:23:37;;;;;;;3.97;3.57;;;;;;;14.92;100.00;97048.06;5099919;28;20188;-59
2021/07/09 04:26:02;;;;;;;4.43;3.57;;;;;;;14.89;100.00;97049.34;5094192;28;20185;-62
2021/07/09 04:28:27;;;;;;;4.27;3.97;;;;;;;14.85;100.00;97048.25;5109612;28;20220;-61
2021/07/09 04:30:54;;;;;;;4.27;3.60;;;;;;;14.68;100.00;97050.16;5100875;28;20728;-59
2021/07/09 04:33:21;;;;;;;3.90;3.50;;;;;;;14.63;100.00;97050.09;5102989;28;20176;-59
2021/07/09 04:35:47;;;;;;;5.33;4.07;;;;;;;14.76;100.00;97047.09;5108228;28;20184;-59
2021/07/09 04:38:13;;;;;;;3.93;3.53;;;;;;;14.82;100.00;97058.50;5093663;28;20285;-59
2021/07/09 04:40:38;;;;;;;3.97;3.63;;;;;;;14.77;100.00;97048.66;5098612;28;20223;-60
2021/07/09 04:43:03;;;;;;;4.47;3.70;;;;;;;14.78;100.00;97054.75;5105789;28;20263;-62
2021/07/09 04:45:29;;;;;;;3.90;3.50;;;;;;;14.68;100.00;97059.91;5105801;28;20477;-59
2021/07/09 04:47:54;;;;;;;5.23;3.67;;;;;;;14.50;100.00;97051.25;5114009;28;20640;-59
2021/07/09 04:50:20;;;;;;;4.60;4.13;;;;;;;14.46;100.00;97060.69;5094714;28;20208;-59
2021/07/09 04:52:45;;;;;;;4.23;3.83;;;;;;;14.61;100.00;97059.28;5098201;28;20219;-59
2021/07/09 04:55:12;;;;;;;4.23;3.67;;;;;;;14.73;100.00;97055.50;5112855;28;20168;-60
2021/07/09 04:57:38;;;;;;;4.33;4.00;;;;;;;14.76;100.00;97060.28;5101392;28;20689;-61
2021/07/09 05:00:05;;;;;;;3.97;3.57;;;;;;;14.59;100.00;97064.81;5109024;28;20301;-62
2021/07/09 05:02:30;;;;;;;3.47;3.17;;;;;;;14.63;100.00;97065.13;5102412;28;20191;-60
2021/07/09 05:04:56;;;;;;;4.83;3.63;;;;;;;14.62;100.00;97059.03;5110081;28;20186;-59
2021/07/09 05:07:21;;;;;;;5.20;4.13;;;;;;;14.75;100.00;97076.38;5112332;28;20195;-59
2021/07/09 05:09:46;;;;;;;4.27;3.83;;;;;;;14.63;100.00;97078.31;5095169;28;20181;-61
2021/07/09 05:12:12;;;;;;;4.03;3.37;;;;;;;14.75;100.00;97071.09;5092916;28;20177;-60
2021/07/09 05:14:38;;;;;;;4.43;3.27;;;;;;;14.74;100.00;97077.41;5101496;28;20285;-60
2021/07/09 05:17:04;;;;;;;3.90;3.50;;;;;;;14.74;100.00;97074.75;5101287;28;20220;-62
2021/07/09 05:19:29;;;;;;;4.53;3.43;;;;;;;14.78;100.00;97074.03;5093020;28;20258;-60
2021/07/09 05:21:55;;;;;;;3.87;3.20;;;;;;;14.72;100.00;97082.91;5109083;28;20665;-60
2021/07/09 05:24:24;;;;;;;4.23;3.57;;;;;;;14.78;100.00;97079.28;5089364;28;20186;-60
2021/07/09 05:26:50;;;;;;;4.43;3.47;;;;;;;14.72;100.00;97087.38;5111600;28;20265;-59
2021/07/09 05:29:15;;;;;;;3.57;3.23;;;;;;;14.76;100.00;97093.78;5098222;28;20184;-59
2021/07/09 05:31:41;;;;;;;3.67;3.37;;;;;;;14.57;100.00;97088.00;5092866;28;20303;-60
2021/07/09 05:34:07;;;;;;;4.40;3.53;;;;;;;14.70;100.00;97090.28;5107059;28;20206;-62
2021/07/09 05:36:32;;;;;;;9.07;3.40;;;;;;;14.70;100.00;97094.78;5110639;28;20188;-60
2021/07/09 05:38:58;;;;;;;5.20;3.93;;;;;;;14.70;100.00;97094.78;5090630;28;20254;-60
2021/07/09 05:41:23;;;;;;;3.60;3.30;;;;;;;14.70;100.00;97102.69;5104970;28;20180;-60
2021/07/09 05:43:49;;;;;;;5.20;3.63;;;;;;;14.70;100.00;97100.06;5095417;28;20189;-60
2021/07/09 05:46:15;;;;;;;3.77;3.47;;;;;;;14.82;100.00;97098.88;5106062;28;20188;-59
2021/07/09 05:48:40;;;;;;;4.00;3.70;;;;;;;14.74;100.00;97103.78;5092934;28;20181;-59
2021/07/09 05:51:05;;;;;;;3.57;3.27;;;;;;;14.81;100.00;97107.84;5096389;28;20370;-63
2021/07/09 05:53:31;;;;;;;5.27;3.53;;;;;;;14.72;100.00;97108.50;5099464;28;20221;-59
2021/07/09 05:55:57;;;;;;;4.00;3.57;;;;;;;14.73;100.00;97113.53;5100069;28;20478;-60
2021/07/09 05:58:23;;;;;;;4.20;3.87;;;;;;;14.75;100.00;97114.09;5107980;28;20176;-59
2021/07/09 06:00:48;;;;;;;4.70;4.07;;;;;;;14.69;100.00;97117.72;5094092;28;20605;-59
2021/07/09 06:03:14;;;;;;;4.03;3.73;;;;;;;14.80;100.00;97119.44;5108224;28;20212;-60
2021/07/09 06:05:39;;;;;;;4.33;3.87;;;;;;;14.76;100.00;97130.75;5099009;28;20209;-59
2021/07/09 06:08:06;;;;;;;4.33;3.93;;;;;;;14.77;100.00;97129.66;5090609;28;20176;-62
2021/07/09 06:10:32;;;;;;;4.37;4.00;;;;;;;14.90;100.00;97130.13;5099492;28;20208;-59
2021/07/09 06:12:58;;;;;;;3.93;3.53;;;;;;;14.92;100.00;97129.88;5109021;28;20175;-60
2021/07/09 06:15:25;;;;;;;3.70;3.40;;;;;;;14.78;100.00;97141.81;5095326;28;20693;-59
2021/07/09 06:17:51;;;;;;;3.30;3.00;;;;;;;14.83;100.00;97128.69;5094616;28;20185;-59
2021/07/09 06:20:16;;;;;;;4.00;3.60;;;;;;;15.05;100.00;97140.06;5106814;28;20207;-59
2021/07/09 06:22:41;;;;;;;4.03;3.63;;;;;;;15.15;100.00;97128.84;5099738;28;20196;-60
2021/07/09 06:25:08;;;;;;;5.47;3.80;;;;;;;15.29;100.00;97135.31;5111390;28;20184;-62
2021/07/09 06:27:33;;;;;;;4.83;4.30;;;;;;;15.38;100.00;97142.56;5102438;28;20175;-59
2021/07/09 06:29:59;;;;;;;4.83;3.80;;;;;;;15.37;100.00;97150.75;5093845;28;20561;-60
2021/07/09 06:32:24;;;;;;;5.77;4.00;;;;;;;15.37;100.00;97146.25;5109750;28;20216;-60
2021/07/09 06:34:50;;;;;;;4.13;3.77;;;;;;;15.43;100.00;97152.41;5098282;28;20653;-59
2021/07/09 06:37:15;;;;;;;4.70;4.20;;;;;;;15.33;100.00;97146.97;5107249;28;20202;-60
2021/07/09 06:39:41;;;;;;;4.50;3.90;;;;;;;15.35;100.00;97155.47;5095044;28;20580;-59
2021/07/09 06:42:06;;;;;;;7.30;4.30;;;;;;;15.43;100.00;97156.88;5092953;28;20563;-63
2021/07/09 06:44:32;;;;;;;4.80;4.40;;;;;;;15.50;100.00;97162.75;5100317;28;20188;-59
2021/07/09 06:46:57;;;;;;;4.60;4.13;;;;;;;15.47;100.00;97168.53;5100210;28;20177;-59
2021/07/09 06:49:22;;;;;;;4.40;4.00;;;;;;;15.51;100.00;97159.06;5096667;28;20198;-59
2021/07/09 06:51:48;;;;;;;4.47;4.07;;;;;;;15.48;100.00;97168.31;5096014;28;20216;-59
2021/07/09 06:54:13;;;;;;;4.63;4.23;;;;;;;15.52;100.00;97174.72;5104784;28;20543;-63
2021/07/09 06:56:39;;;;;;;5.60;3.97;;;;;;;15.49;100.00;97174.38;5102167;28;20641;-59
2021/07/09 06:59:04;;;;;;;4.67;4.17;;;;;;;15.39;100.00;97180.34;5104221;28;20191;-59
2021/07/09 07:01:29;;;;;;;4.77;4.13;;;;;;;15.46;100.00;97186.22;5097370;28;20825;-59
2021/07/09 07:03:55;;;;;;;4.40;4.03;;;;;;;15.36;100.00;97179.00;5084788;28;20177;-59
2021/07/09 07:06:20;;;;;;;5.50;4.10;;;;;;;15.52;100.00;97180.00;5106007;28;20676;-59
2021/07/09 07:08:45;;;;;;;4.63;4.20;;;;;;;15.58;100.00;97191.41;5088982;28;20200;-60
2021/07/09 07:11:11;;;;;;;6.40;4.90;;;;;;;15.68;100.00;97186.22;5098284;28;20203;-62
2021/07/09 07:13:36;;;;;;;4.47;4.07;;;;;;;15.70;100.00;97187.59;5111674;28;20206;-59
2021/07/09 07:16:02;;;;;;;7.33;4.33;;;;;;;15.83;100.00;97189.03;5097305;28;20281;-59
2021/07/09 07:18:27;;;;;;;5.87;4.13;;;;;;;16.11;100.00;97186.09;5090997;28;20173;-59
2021/07/09 07:20:55;;;;;;;5.47;4.00;;;;;;;16.16;100.00;97190.66;5096891;28;20704;-59
2021/07/09 07:23:21;;;;;;;6.03;4.03;;;;;;;16.32;100.00;97189.75;5092079;28;20180;-59
2021/07/09 07:25:47;;;;;;;4.43;3.67;;;;;;;16.61;100.00;97192.88;5099963;28;20535;-59
2021/07/09 07:28:13;;;;;;;4.10;3.70;;;;;;;16.72;100.00;97194.53;5099784;28;20632;-62
2021/07/09 07:30:39;;;;;;;4.10;3.70;;;;;;;16.67;100.00;97196.34;5093129;28;20201;-59
2021/07/09 07:33:05;;;;;;;3.67;3.37;;;;;;;16.85;100.00;97193.28;5100677;28;20253;-59
2021/07/09 07:35:30;;;;;;;4.07;3.67;;;;;;;16.81;100.00;97208.09;5097346;28;20727;-59
2021/07/09 07:37:56;;;;;;;3.77;3.27;;;;;;;16.92;100.00;97197.31;5101793;28;20180;-59
2021/07/09 07:40:22;;;;;;;3.90;3.40;;;;;;;16.95;100.00;97196.00;5092732;28;20280;-59
2021/07/09 07:42:47;;;;;;;3.97;3.37;;;;;;;17.29;100.00;97199.06;5096277;28;20181;-59
2021/07/09 07:45:12;;;;;;;3.23;2.93;;;;;;;17.42;98.60;97199.41;5088430;28;20177;-60
2021/07/09 07:47:38;;;;;;;3.13;2.90;;;;;;;17.65;97.92;97206.13;5093572;28;20274;-60
2021/07/09 07:50:06;;;;;;;3.97;3.23;;;;;;;17.75;96.22;97211.47;5106460;28;20196;-59
2021/07/09 07:52:31;;;;;;;3.33;3.03;;;;;;;17.94;95.22;97208.31;5106454;28;20191;-59
2021/07/09 07:54:57;;;;;;;3.37;3.07;;;;;;;17.95;95.21;97205.38;5089089;28;20267;-59
2021/07/09 07:57:23;;;;;;;3.40;3.10;;;;;;;17.78;95.64;97208.28;5088559;28;20185;-59
2021/07/09 07:59:48;;;;;;;5.17;3.60;;;;;;;17.80;95.20;97208.00;5095308;28;20203;-60
2021/07/09 08:02:13;;;;;;;3.17;2.97;;;;;;;18.02;95.44;97207.78;5095989;28;20255;-59
2021/07/09 08:04:39;;;;;;;4.13;3.40;;;;;;;18.13;94.31;97212.06;5101751;28;20187;-59
2021/07/09 08:07:05;;;;;;;4.53;3.60;;;;;;;18.28;93.56;97204.09;5114435;28;20527;-59
2021/07/09 08:09:31;;;;;;;3.50;3.20;;;;;;;18.47;91.59;97209.69;5099434;28;20188;-59
2021/07/09 08:11:58;;;;;;;3.23;2.87;;;;;;;18.28;92.45;97206.75;5093411;28;20213;-59
2021/07/09 08:14:23;;;;;;;3.07;2.77;;;;;;;18.65;91.50;97207.31;5101749;28;20287;-59
2021/07/09 08:16:51;;;;;;;3.10;2.90;;;;;;;18.98;88.67;97199.81;5097646;28;20267;-59
2021/07/09 08:19:18;;;;;;;3.07;2.77;;;;;;;19.21;86.82;97193.91;5108735;28;20176;-59
2021/07/09 08:21:46;;;;;;;3.33;3.03;;;;;;;19.16;86.83;97199.25;5096941;28;20223;-59
2021/07/09 08:24:12;;;;;;;10.20;6.03;;;;;;;19.18;86.01;97198.94;5101257;28;20172;-62
2021/07/09 08:26:38;;;;;;;13.23;6.90;;;;;;;18.85;87.36;97205.69;5092797;28;20203;-59
2021/07/09 08:29:03;;;;;;;18.92;8.23;;;;;;;18.91;88.23;97201.94;5109527;28;20200;-59
2021/07/09 08:31:29;;;;;;;16.30;6.78;;;;;;;19.13;85.74;97199.75;5096305;28;20184;-59
2021/07/09 08:33:54;;;;;;;15.95;8.35;;;;;;;19.54;84.39;97199.63;5108124;28;20233;-59
2021/07/09 08:36:19;;;;;;;10.40;6.00;;;;;;;19.97;82.53;97203.38;5096975;28;20238;-60
2021/07/09 08:38:45;;;;;;;6.38;3.40;;;;;;;20.14;79.44;97201.94;5109959;28;20642;-59
2021/07/09 08:41:13;;;;;;;3.03;2.60;;;;;;;20.12;79.92;97203.28;5113515;28;20180;-63
2021/07/09 08:43:39;;;;;;;3.03;2.78;;;;;;;20.01;79.08;97204.41;5107203;28;20258;-59
2021/07/09 08:46:04;;;;;;;4.07;2.85;;;;;;;20.11;77.50;97207.03;5100728;28;20249;-59
2021/07/09 08:48:30;;;;;;;2.67;2.50;;;;;;;19.83;78.16;97206.69;5106229;28;20730;-59
2021/07/09 08:50:59;;;;;;;3.05;2.75;;;;;;;20.31;76.41;97212.19;5105905;28;20218;-59
2021/07/09 08:53:25;;;;;;;3.13;2.30;;;;;;;20.41;76.57;97214.81;5104597;28;20183;-59
2021/07/09 08:55:50;;;;;;;2.58;2.38;;;;;;;20.33;75.81;97218.09;5091305;28;20176;-61
2021/07/09 08:58:16;;;;;;;2.47;2.28;;;;;;;20.36;76.28;97219.38;5093949;28;20237;-60
2021/07/09 09:00:45;;;;;;;2.83;2.60;;;;;;;20.70;74.87;97225.50;5103505;28;20237;-59
2021/07/09 09:03:13;;;;;;;2.40;2.20;;;;;;;20.73;71.72;97219.63;5102168;28;20185;-62
2021/07/09 09:05:39;;;;;;;3.95;2.70;;;;;;;21.27;71.52;97223.88;5109688;28;20180;-60
2021/07/09 09:08:06;;;;;;;2.70;2.50;;;;;;;21.94;66.89;97223.59;5098611;28;20220;-59
2021/07/09 09:10:41;;;;;;;2.67;2.33;;;;;;;22.31;68.07;97228.13;5104623;28;20472;-60
2021/07/09 09:13:12;;;;;;;2.63;2.30;;;;;;;22.74;65.78;97227.97;5094740;28;20175;-59
2021/07/09 09:15:41;;;;;;;2.67;2.10;;;;;;;23.23;63.93;97226.59;5109709;28;20192;-60
2021/07/09 09:18:29;;;;;;;3.08;2.13;;;;;;;23.42;62.61;97230.72;5097059;28;20237;-59
2021/07/09 09:21:18;;;;;;;3.20;2.30;;;;;;;22.96;63.06;97236.13;5102003;28;20173;-59
2021/07/09 09:23:53;;;;;;;2.92;2.00;;;;;;;22.84;63.42;97240.41;5098950;28;20280;-60
2021/07/09 09:26:49;;;;;;;2.40;2.20;;;;;;;22.55;61.94;97232.56;5096636;28;20680;-60
2021/07/09 09:29:34;;;;;;;2.53;2.33;;;;;;;22.24;63.60;97240.25;5093480;28;20172;-60
2021/07/09 09:32:03;;;;;;;2.28;2.15;;;;;;;22.41;64.59;97227.16;5095882;28;20290;-59
2021/07/09 09:34:41;;;;;;;2.30;2.10;;;;;;;22.82;63.64;97245.22;5110848;28;20211;-59
2021/07/09 09:37:07;;;;;;;2.40;2.20;;;;;;;23.56;61.59;97236.13;5107901;28;20297;-60
2021/07/09 09:39:33;;;;;;;2.45;2.17;;;;;;;23.25;61.03;97233.22;5104692;28;20408;-59
2021/07/09 09:42:19;;;;;;;3.13;2.33;;;;;;;22.75;61.98;97234.91;5095179;28;20192;-60
2021/07/09 09:44:48;;;;;;;3.83;2.17;;;;;;;22.80;61.94;97234.81;5101969;28;20192;-59
2021/07/09 09:47:19;;;;;;;2.33;2.10;;;;;;;23.23;61.54;97227.38;5108560;28;20188;-62
2021/07/09 09:49:51;;;;;;;2.75;2.40;;;;;;;22.40;61.26;97233.59;5101661;28;20177;-59
2021/07/09 09:52:41;;;;;;;2.55;2.35;;;;;;;22.37;63.04;97232.28;5102414;28;20176;-59
2021/07/09 09:55:08;;;;;;;2.33;2.13;;;;;;;22.51;62.36;97232.34;5102746;28;20658;-59
2021/07/09 09:57:34;;;;;;;2.67;2.40;;;;;;;22.09;62.45;97232.47;5105028;28;20189;-59
2021/07/09 10:00:00;;;;;;;3.78;2.63;;;;;;;21.82;62.29;97231.19;5092920;28;20181;-59
2021/07/09 10:02:25;;;;;;;2.83;2.60;;;;;;;21.73;62.50;97232.13;5108852;28;20180;-60
2021/07/09 10:04:52;;;;;;;3.10;2.45;;;;;;;21.39;63.71;97226.94;5095670;28;20217;-61
2021/07/09 10:07:19;;;;;;;3.15;2.33;;;;;;;21.15;62.83;97227.75;5082519;28;20633;-60
2021/07/09 10:09:45;;;;;;;2.83;2.35;;;;;;;21.33;63.55;97228.88;5111170;28;20184;-60
2021/07/09 10:12:16;;;;;;;2.40;2.20;;;;;;;21.68;61.46;97235.63;5103099;28;20207;-63
2021/07/09 10:14:44;;;;;;;3.92;2.65;;;;;;;21.79;61.46;97226.41;5093405;28;20185;-61
2021/07/09 10:17:10;;;;;;;2.63;2.40;;;;;;;22.12;60.55;97230.03;5093888;28;20192;-60
2021/07/09 10:19:38;;;;;;;2.70;2.50;;;;;;;22.84;58.91;97233.16;5094217;28;20284;-60
2021/07/09 10:22:05;;;;;;;2.70;2.50;;;;;;;22.11;60.89;97224.97;5111244;28;20179;-60
2021/07/09 10:24:31;;;;;;;2.90;2.65;;;;;;;21.45;62.29;97231.94;5099449;28;20283;-60
2021/07/09 10:26:57;;;;;;;3.35;2.72;;;;;;;21.82;62.71;97228.53;5106028;28;20258;-60
2021/07/09 10:29:25;;;;;;;3.15;2.60;;;;;;;21.88;62.88;97219.38;5108867;28;20188;-60
2021/07/09 10:31:53;;;;;;;2.72;2.53;;;;;;;22.71;61.33;97228.53;5098816;28;20279;-61
2021/07/09 10:34:30;;;;;;;2.70;2.50;;;;;;;23.24;60.18;97228.19;5102026;28;20538;-61
2021/07/09 10:37:01;;;;;;;4.63;2.92;;;;;;;22.75;58.28;97224.22;5103088;28;20172;-60
2021/07/09 10:39:45;;;;;;;2.70;2.50;;;;;;;21.90;62.33;97227.88;5109539;28;20258;-60
2021/07/09 10:42:15;;;;;;;3.45;3.08;;;;;;;21.51;61.75;97228.09;5106516;28;20196;-60
2021/07/09 10:45:13;;;;;;;3.05;2.75;;;;;;;21.27;63.05;97230.00;5094703;28;20185;-60
2021/07/09 10:47:43;;;;;;;3.83;3.22;;;;;;;21.35;63.84;97228.56;5088310;28;20184;-60
2021/07/09 10:50:28;;;;;;;6.63;3.55;;;;;;;21.87;62.87;97228.47;5095745;28;20681;-60
2021/07/09 10:52:58;;;;;;;4.30;3.65;;;;;;;21.90;62.46;97230.53;5099961;28;20799;-60
2021/07/09 10:55:29;;;;;;;6.90;4.07;;;;;;;22.08;61.17;97229.00;5103095;28;20195;-60
2021/07/09 10:58:07;;;;;;;5.35;4.43;;;;;;;22.37;60.26;97236.84;5107832;28;20196;-60
2021/07/09 11:00:49;;;;;;;5.10;4.45;;;;;;;22.77;59.44;97236.22;5097739;28;20184;-60
2021/07/09 11:03:39;;;;;;;4.43;3.95;;;;;;;23.54;58.28;97230.25;5098323;28;20271;-63
2021/07/09 11:06:17;;;;;;;4.65;4.25;;;;;;;24.02;56.37;97220.66;5077439;28;20207;-61
2021/07/09 11:09:03;;;;;;;5.65;4.35;;;;;;;24.41;53.75;97213.88;5102755;28;20184;-60
2021/07/09 11:11:36;;;;;;;4.68;4.22;;;;;;;24.55;52.83;97216.50;5105516;28;20562;-60
2021/07/09 11:14:11;;;;;;;5.82;4.32;;;;;;;23.44;55.58;97222.41;5108138;28;20176;-60
2021/07/09 11:16:58;;;;;;;4.38;3.97;;;;;;;22.89;57.14;97221.59;5094411;28;20207;-61
2021/07/09 11:19:30;;;;;;;4.30;3.83;;;;;;;22.39;58.57;97219.44;5092280;28;20200;-60
2021/07/09 11:22:00;;;;;;;5.30;4.28;;;;;;;22.67;57.52;97217.66;5105607;28;20176;-60
2021/07/09 11:24:28;;;;;;;6.63;4.13;;;;;;;22.76;58.55;97223.94;5104955;28;20180;-60
2021/07/09 11:27:03;;;;;;;4.82;4.40;;;;;;;22.74;57.76;97225.31;5100154;28;20199;-61
2021/07/09 11:29:46;;;;;;;4.85;4.30;;;;;;;22.33;58.56;97220.63;5095883;28;20176;-60